Kincolith, Canada
Current Conditions -  °F | °C
As of 4:11 AM on Friday 19 Dec 2014 (Local Time) from CYPR Reporting Station
Overcast Overcast  
Wind Chill: 36°   Ceiling: 5500
Heat Index: 41°   Visibility: 9mi
Dew Point: 37°   Wind: 8mph
Humidity: 87%   Direction: 120°ESE
Pressure: 29.41"   Gusts: NA
Location:  55°N, 129.95°W
Report Text: CYPR 191211Z AUTO 12007KT 9SM FEW042 BKN055 OVC072 05/03 A2941 RMK SLP960
Loading
Personal Weather Stations






























Interactive Weather Map New forecast layout! Learn more

10-Day Weather Forecast

Advertisements
Track Severe Weather on mobile